createdAt,value
2022-12-11T00:00:53.084Z,43.30
2022-12-11T00:03:40.448Z,43.20
2022-12-11T00:06:10.422Z,19.50
2022-12-11T00:08:39.012Z,19.00
2022-12-11T00:11:12.702Z,21.60
2022-12-11T00:13:40.302Z,22.80
2022-12-11T00:16:08.564Z,22.40
2022-12-11T00:18:36.561Z,21.60
2022-12-11T00:21:06.544Z,20.90
2022-12-11T00:23:35.771Z,32.60
2022-12-11T00:26:09.375Z,24.90
2022-12-11T00:28:37.046Z,31.20
2022-12-11T00:31:09.173Z,26.50
2022-12-11T00:33:36.734Z,23.90
2022-12-11T00:36:09.831Z,21.50
2022-12-11T00:38:37.478Z,27.30
2022-12-11T00:41:05.164Z,24.20
2022-12-11T00:43:32.738Z,48.50
2022-12-11T00:46:00.790Z,31.20
2022-12-11T00:48:28.425Z,29.90
2022-12-11T00:50:56.008Z,27.80
2022-12-11T00:53:23.776Z,18.80
2022-12-11T00:55:51.348Z,21.80
2022-12-11T00:58:19.515Z,18.40
2022-12-11T01:00:48.302Z,22.60
2022-12-11T01:03:17.072Z,20.00
2022-12-11T01:05:53.040Z,19.80
2022-12-11T01:08:21.120Z,16.90
2022-12-11T01:10:48.767Z,20.60
2022-12-11T01:13:16.379Z,25.90
2022-12-11T01:15:45.343Z,21.40
2022-12-11T01:18:14.732Z,19.90
2022-12-11T01:20:43.371Z,21.80
2022-12-11T01:23:13.149Z,18.70
2022-12-11T01:25:42.393Z,16.50
2022-12-11T01:28:11.206Z,23.60
2022-12-11T01:30:42.653Z,18.80
2022-12-11T01:33:10.437Z,18.30
2022-12-11T01:35:39.091Z,20.10
2022-12-11T01:38:06.668Z,27.10
2022-12-11T01:40:34.266Z,20.40
2022-12-11T01:43:02.438Z,15.80
2022-12-11T01:45:34.868Z,16.00
2022-12-11T01:48:12.368Z,16.90
2022-12-11T01:50:52.374Z,16.90
2022-12-11T01:53:24.166Z,23.60
2022-12-11T01:55:55.016Z,24.00
2022-12-11T01:58:27.264Z,29.70
2022-12-11T02:00:56.021Z,19.50
2022-12-11T02:03:24.014Z,14.30
2022-12-11T02:05:52.236Z,15.30
2022-12-11T02:08:20.592Z,18.00
2022-12-11T02:11:04.206Z,16.30
2022-12-11T02:13:36.344Z,14.50
2022-12-11T02:16:19.562Z,23.30
2022-12-11T02:19:00.456Z,25.50
2022-12-11T02:21:50.830Z,18.80
2022-12-11T02:24:34.418Z,15.40
2022-12-11T02:27:20.549Z,17.50
2022-12-11T02:29:56.336Z,14.90
2022-12-11T02:32:54.119Z,12.50
2022-12-11T02:35:28.272Z,16.00
2022-12-11T02:38:07.977Z,17.30
2022-12-11T02:40:40.767Z,14.40
2022-12-11T02:43:11.657Z,11.60
2022-12-11T02:45:41.752Z,15.20
2022-12-11T02:48:12.776Z,13.30
2022-12-11T02:50:46.051Z,15.20
2022-12-11T02:53:18.813Z,13.00
2022-12-11T02:55:50.801Z,12.00
2022-12-11T02:58:22.530Z,15.30
2022-12-11T03:00:51.124Z,19.00
2022-12-11T03:03:18.785Z,26.10
2022-12-11T03:05:46.375Z,17.70
2022-12-11T03:08:18.634Z,15.30
2022-12-11T03:10:46.378Z,17.70
2022-12-11T03:13:19.341Z,14.50
2022-12-11T03:15:59.476Z,12.00
2022-12-11T03:18:33.076Z,12.00
2022-12-11T03:21:05.575Z,15.60
2022-12-11T03:23:53.739Z,21.20
2022-12-11T03:26:23.748Z,23.20
2022-12-11T03:28:59.538Z,15.90
2022-12-11T03:31:29.895Z,17.80
2022-12-11T03:34:03.452Z,17.10
2022-12-11T03:36:34.828Z,18.80
2022-12-11T03:39:09.575Z,18.60
2022-12-11T03:41:40.160Z,20.60
2022-12-11T03:44:09.058Z,18.30
2022-12-11T03:46:41.055Z,16.40
2022-12-11T03:49:18.932Z,11.20
2022-12-11T03:51:49.149Z,21.60
2022-12-11T03:54:17.835Z,16.80
2022-12-11T03:56:46.609Z,13.90
2022-12-11T03:59:14.292Z,17.10
2022-12-11T04:01:41.859Z,14.60
2022-12-11T04:04:09.523Z,14.60
2022-12-11T04:06:37.099Z,32.80
2022-12-11T04:09:04.809Z,19.00
2022-12-11T04:11:35.358Z,22.80
2022-12-11T04:14:24.944Z,19.70
2022-12-11T04:16:53.344Z,19.90
2022-12-11T04:19:39.788Z,22.60
2022-12-11T04:22:24.006Z,22.40
2022-12-11T04:24:51.656Z,19.20
2022-12-11T04:27:39.703Z,23.80
2022-12-11T04:30:12.303Z,17.30
2022-12-11T04:32:39.892Z,15.50
2022-12-11T04:35:09.970Z,17.30
2022-12-11T04:37:38.581Z,22.20
2022-12-11T04:40:09.959Z,17.60
2022-12-11T04:42:37.931Z,18.90
2022-12-11T04:45:08.288Z,14.50
2022-12-11T04:47:37.240Z,17.80
2022-12-11T04:50:06.632Z,16.20
2022-12-11T04:52:34.256Z,29.00
2022-12-11T04:55:04.593Z,30.10
2022-12-11T04:57:32.140Z,22.60
2022-12-11T04:59:59.964Z,27.70
2022-12-11T05:02:27.624Z,22.00
2022-12-11T05:04:55.320Z,24.10
2022-12-11T05:07:22.870Z,22.90
2022-12-11T05:09:50.443Z,25.50
2022-12-11T05:12:17.984Z,28.60
2022-12-11T05:14:45.672Z,27.10
2022-12-11T05:17:13.442Z,31.30
2022-12-11T05:19:41.061Z,29.30
2022-12-11T05:22:08.614Z,20.20
2022-12-11T05:24:36.183Z,24.60
2022-12-11T05:27:03.828Z,23.70
2022-12-11T05:29:31.358Z,28.40
2022-12-11T05:31:59.220Z,25.70
2022-12-11T05:34:27.131Z,20.30
2022-12-11T05:36:54.696Z,24.80
2022-12-11T05:39:23.260Z,21.50
2022-12-11T05:41:50.816Z,34.50
2022-12-11T05:44:18.399Z,26.10
2022-12-11T05:46:45.956Z,38.00
2022-12-11T05:49:13.559Z,29.60
2022-12-11T05:51:41.456Z,24.70
2022-12-11T05:54:10.128Z,24.50
2022-12-11T05:56:38.217Z,25.30
2022-12-11T05:59:06.699Z,28.30
2022-12-11T06:01:40.697Z,25.00
2022-12-11T06:04:10.503Z,21.30
2022-12-11T06:06:38.595Z,18.80
2022-12-11T06:09:06.644Z,26.60
2022-12-11T06:11:35.641Z,27.20
2022-12-11T06:14:04.126Z,21.00
2022-12-11T06:16:32.935Z,16.90
2022-12-11T06:19:00.711Z,34.70
2022-12-11T06:21:30.693Z,28.20
2022-12-11T06:24:02.168Z,27.60
2022-12-11T06:26:29.836Z,25.40
2022-12-11T06:28:58.061Z,24.60
2022-12-11T06:31:25.660Z,23.30
2022-12-11T06:33:54.235Z,24.20
2022-12-11T06:36:23.749Z,21.00
2022-12-11T06:38:52.216Z,19.40
2022-12-11T06:41:19.788Z,24.30
2022-12-11T06:43:47.464Z,22.90
2022-12-11T06:46:18.123Z,23.00
2022-12-11T06:48:47.220Z,16.70
2022-12-11T06:51:18.253Z,24.80
2022-12-11T06:53:50.830Z,18.10
2022-12-11T06:56:18.922Z,22.80
2022-12-11T06:58:46.511Z,22.70
2022-12-11T07:01:22.899Z,31.00
2022-12-11T07:03:53.513Z,17.40
2022-12-11T07:06:22.306Z,24.50
2022-12-11T07:08:49.937Z,21.10
2022-12-11T07:11:19.784Z,25.80
2022-12-11T07:13:47.860Z,26.50
2022-12-11T07:16:17.500Z,25.00
2022-12-11T07:18:50.393Z,26.90
2022-12-11T07:21:20.269Z,19.40
2022-12-11T07:23:49.671Z,28.50
2022-12-11T07:26:20.704Z,21.50
2022-12-11T07:28:48.867Z,25.20
2022-12-11T07:31:20.397Z,13.30
2022-12-11T07:33:47.975Z,14.80
2022-12-11T07:36:16.732Z,17.60
2022-12-11T07:38:44.734Z,19.70
2022-12-11T07:41:14.079Z,12.20
2022-12-11T07:43:42.802Z,19.00
2022-12-11T08:11:23.032Z,21.90
2022-12-11T08:13:50.703Z,23.50
2022-12-11T08:16:19.897Z,20.60
2022-12-11T08:18:48.256Z,21.60
2022-12-11T08:21:19.599Z,23.20
2022-12-11T08:23:48.889Z,23.70
2022-12-11T08:26:20.221Z,19.60
2022-12-11T08:28:47.773Z,16.10
2022-12-11T08:31:16.741Z,30.90
2022-12-11T08:33:44.883Z,19.90
2022-12-11T08:36:14.981Z,29.40
2022-12-11T08:38:43.149Z,27.00
2022-12-11T08:41:16.127Z,33.10
2022-12-11T08:43:44.608Z,30.70
2022-12-11T08:46:13.395Z,24.40
2022-12-11T08:48:43.098Z,26.10
2022-12-11T08:51:14.801Z,23.40
2022-12-11T08:53:43.077Z,18.50
2022-12-11T08:56:13.435Z,29.30
2022-12-11T08:58:41.924Z,30.60
2022-12-11T09:01:21.681Z,32.00
2022-12-11T09:03:50.955Z,29.50
2022-12-11T09:06:21.338Z,29.90
2022-12-11T09:08:53.030Z,29.20
2022-12-11T09:11:23.878Z,51.20
2022-12-11T09:13:52.350Z,29.50
2022-12-11T09:16:22.117Z,30.30
2022-12-11T09:18:51.678Z,32.00
2022-12-11T09:21:22.138Z,41.20
2022-12-11T09:23:52.897Z,20.60
2022-12-11T09:26:20.909Z,32.10
2022-12-11T09:28:51.181Z,28.60
2022-12-11T09:31:23.513Z,29.20
2022-12-11T09:33:54.334Z,34.20
2022-12-11T09:36:22.799Z,30.50
2022-12-11T09:38:50.886Z,27.00
2022-12-11T09:41:21.598Z,31.80
2022-12-11T09:43:59.818Z,28.40
2022-12-11T09:46:33.527Z,26.10
2022-12-11T09:49:03.763Z,28.90
2022-12-11T09:51:46.809Z,29.80
2022-12-11T09:54:14.998Z,37.90
2022-12-11T09:56:53.738Z,50.70
2022-12-11T09:59:37.242Z,27.30
2022-12-11T10:02:41.070Z,29.40
2022-12-11T10:05:30.797Z,19.10
2022-12-11T10:08:10.422Z,25.50
2022-12-11T10:11:03.396Z,23.60
2022-12-11T10:13:56.585Z,18.00
2022-12-11T10:16:43.819Z,18.70
2022-12-11T10:19:18.193Z,15.80
2022-12-11T10:21:47.784Z,19.60
2022-12-11T10:25:09.943Z,20.80
2022-12-11T10:27:32.836Z,26.70
2022-12-11T10:30:25.481Z,35.90
2022-12-11T10:33:29.269Z,43.10
2022-12-11T10:35:58.143Z,33.60
2022-12-11T10:38:46.165Z,36.20
2022-12-11T10:41:17.945Z,24.00
2022-12-11T10:43:48.519Z,28.60
2022-12-11T10:46:28.393Z,28.10
2022-12-11T10:48:59.070Z,27.00
2022-12-11T10:51:26.614Z,25.00
2022-12-11T10:54:02.589Z,21.90
2022-12-11T10:56:35.664Z,41.30
2022-12-11T10:59:03.909Z,45.50
2022-12-11T11:01:32.815Z,30.90
2022-12-11T11:04:14.338Z,22.30
2022-12-11T11:06:41.882Z,19.90
2022-12-11T11:09:28.922Z,27.70
2022-12-11T11:11:56.501Z,43.20
2022-12-11T11:14:24.134Z,38.40
2022-12-11T11:16:56.523Z,44.00
2022-12-11T11:19:34.779Z,26.60
2022-12-11T11:22:19.532Z,31.10
2022-12-11T11:25:05.074Z,26.10
2022-12-11T11:27:43.826Z,27.90
2022-12-11T11:30:38.630Z,58.90
2022-12-11T11:33:15.828Z,44.60
2022-12-11T11:36:02.595Z,33.50
2022-12-11T11:38:43.531Z,33.20
2022-12-11T11:41:43.111Z,32.20
2022-12-11T11:44:16.107Z,32.30
2022-12-11T11:46:49.984Z,28.70
2022-12-11T11:49:41.799Z,31.30
2022-12-11T11:52:25.232Z,31.70
2022-12-11T11:55:21.765Z,16.70
2022-12-11T11:58:00.440Z,18.00
2022-12-11T12:00:33.601Z,18.70
2022-12-11T12:03:19.137Z,16.00
2022-12-11T12:06:15.275Z,15.30
2022-12-11T12:09:14.319Z,14.20
2022-12-11T12:11:57.254Z,21.70
2022-12-11T12:17:32.437Z,25.60
2022-12-11T12:20:16.179Z,24.80
2022-12-11T12:22:59.700Z,27.80
2022-12-11T12:25:43.234Z,27.80
2022-12-11T12:28:39.475Z,30.70
2022-12-11T12:31:23.099Z,43.30
2022-12-11T12:34:14.110Z,29.20
2022-12-11T12:36:55.171Z,44.60
2022-12-11T12:39:38.429Z,41.40
2022-12-11T12:42:38.007Z,38.40
2022-12-11T12:45:24.917Z,18.10
2022-12-11T12:47:53.657Z,18.90
2022-12-11T12:50:31.524Z,24.60
2022-12-11T12:52:59.536Z,23.70
2022-12-11T12:55:31.887Z,28.60
2022-12-11T12:58:02.766Z,16.80
2022-12-11T13:00:47.344Z,24.40
2022-12-11T13:03:29.170Z,17.70
2022-12-11T13:06:07.631Z,18.90
2022-12-11T13:08:51.721Z,31.30
2022-12-11T13:11:21.499Z,26.00
2022-12-11T13:14:02.957Z,23.30
2022-12-11T13:16:40.235Z,20.00
2022-12-11T13:19:23.860Z,22.10
2022-12-11T13:22:21.386Z,35.10
2022-12-11T13:24:53.077Z,12.60
2022-12-11T13:27:38.223Z,11.30
2022-12-11T13:30:07.982Z,22.10
2022-12-11T13:32:36.610Z,29.10
2022-12-11T13:35:07.446Z,21.70
2022-12-11T13:37:43.999Z,28.80
2022-12-11T13:40:20.021Z,17.40
2022-12-11T13:42:54.381Z,17.90
2022-12-11T13:45:28.242Z,37.10
2022-12-11T13:48:00.047Z,24.20
2022-12-11T13:50:33.247Z,21.70
2022-12-11T13:53:02.721Z,24.60
2022-12-11T13:55:35.130Z,16.60
2022-12-11T13:58:02.719Z,18.50
2022-12-11T14:00:32.803Z,24.10
2022-12-11T14:03:07.494Z,23.80
2022-12-11T14:05:35.843Z,23.50
2022-12-11T14:08:10.317Z,24.10
2022-12-11T14:10:39.844Z,17.40
2022-12-11T14:13:33.521Z,17.50
2022-12-11T14:16:02.668Z,24.30
2022-12-11T14:18:33.908Z,21.50
2022-12-11T14:21:04.869Z,19.40
2022-12-11T14:23:34.965Z,19.90
2022-12-11T14:26:25.675Z,20.80
2022-12-11T14:28:53.693Z,21.90
2022-12-11T14:31:31.585Z,17.80
2022-12-11T14:34:06.921Z,17.20
2022-12-11T14:36:36.423Z,14.90
2022-12-11T14:39:13.816Z,26.20
2022-12-11T14:41:53.454Z,14.40
2022-12-11T14:44:24.994Z,18.70
2022-12-11T14:47:00.465Z,13.00
2022-12-11T14:49:50.212Z,13.60
2022-12-11T14:52:23.425Z,15.20
2022-12-11T14:54:57.043Z,13.40
2022-12-11T14:59:56.328Z,11.00
2022-12-11T15:02:32.601Z,12.60
2022-12-11T15:05:10.441Z,12.80
2022-12-11T15:07:38.993Z,14.00
2022-12-11T15:10:07.103Z,15.90
2022-12-11T15:12:34.930Z,15.00
2022-12-11T15:15:07.560Z,17.80
2022-12-11T15:17:37.450Z,17.70
2022-12-11T15:20:14.518Z,20.90
2022-12-11T15:22:43.939Z,12.90
2022-12-11T15:25:28.903Z,22.00
2022-12-11T15:27:59.609Z,13.70
2022-12-11T15:30:31.807Z,12.80
2022-12-11T15:33:02.468Z,8.20
2022-12-11T15:35:30.488Z,13.50
2022-12-11T15:37:58.529Z,9.30
2022-12-11T15:40:30.244Z,13.50
2022-12-11T15:43:04.754Z,11.90
2022-12-11T15:45:32.435Z,11.60
2022-12-11T15:47:59.986Z,18.50
2022-12-11T15:50:29.137Z,16.30
2022-12-11T15:52:57.202Z,17.20
2022-12-11T15:55:27.435Z,16.20
2022-12-11T15:57:59.290Z,14.50
2022-12-11T16:00:30.457Z,14.70
2022-12-11T16:02:58.388Z,15.10
2022-12-11T16:05:26.956Z,16.50
2022-12-11T16:07:56.523Z,15.80
2022-12-11T16:10:24.263Z,16.20
2022-12-11T16:12:51.817Z,14.30
2022-12-11T16:15:23.425Z,9.60
2022-12-11T16:18:00.560Z,13.40
2022-12-11T16:20:28.703Z,9.10
2022-12-11T16:22:57.415Z,14.40
2022-12-11T16:25:26.918Z,19.40
2022-12-11T16:27:59.011Z,16.50
2022-12-11T16:30:28.287Z,15.00
2022-12-11T16:32:56.623Z,17.50
2022-12-11T16:35:24.235Z,12.80
2022-12-11T16:37:53.326Z,17.40
2022-12-11T16:40:21.974Z,17.20
2022-12-11T16:42:50.386Z,14.40
2022-12-11T16:45:21.103Z,16.50
2022-12-11T16:47:49.080Z,13.30
2022-12-11T16:50:17.339Z,18.80
2022-12-11T16:52:46.896Z,16.20
2022-12-11T16:55:15.599Z,10.40
2022-12-11T16:57:43.219Z,9.80
2022-12-11T17:00:12.744Z,11.50
2022-12-11T17:02:40.686Z,33.20
2022-12-11T17:05:08.745Z,15.40
2022-12-11T17:07:36.523Z,18.80
2022-12-11T17:10:04.909Z,16.70
2022-12-11T17:12:32.520Z,15.10
2022-12-11T17:15:00.121Z,14.20
2022-12-11T17:17:27.744Z,16.10
2022-12-11T17:19:56.705Z,19.30
2022-12-11T17:22:24.352Z,11.70
2022-12-11T17:24:52.005Z,15.80
2022-12-11T17:27:19.667Z,23.00
2022-12-11T17:29:49.475Z,19.60
2022-12-11T17:32:18.389Z,16.40
2022-12-11T17:34:49.545Z,16.00
2022-12-11T17:37:17.872Z,17.40
2022-12-11T17:39:47.211Z,13.40
2022-12-11T17:42:14.839Z,23.20
2022-12-11T17:44:45.319Z,24.70
2022-12-11T17:47:13.211Z,20.60
2022-12-11T17:49:41.206Z,22.10
2022-12-11T17:52:09.082Z,18.70
2022-12-11T17:54:36.869Z,18.70
2022-12-11T17:57:06.368Z,14.10
2022-12-11T17:59:34.014Z,14.40
2022-12-11T18:02:01.645Z,15.00
2022-12-11T18:04:29.275Z,14.90
2022-12-11T18:06:57.084Z,19.20
2022-12-11T18:09:24.689Z,24.00
2022-12-11T18:11:52.965Z,20.10
2022-12-11T18:14:20.543Z,13.40
2022-12-11T18:16:48.460Z,13.30
2022-12-11T18:19:16.250Z,15.80
2022-12-11T18:21:45.663Z,15.60
2022-12-11T18:24:13.293Z,15.40
2022-12-11T18:26:42.812Z,21.20
2022-12-11T18:29:10.604Z,12.10
2022-12-11T18:31:42.708Z,13.30
2022-12-11T18:34:11.493Z,21.30
2022-12-11T18:36:40.674Z,14.50
2022-12-11T18:39:08.254Z,17.30
2022-12-11T18:41:35.868Z,20.80
2022-12-11T18:44:09.303Z,19.80
2022-12-11T18:46:39.609Z,16.10
2022-12-11T18:49:08.466Z,12.90
2022-12-11T18:51:36.074Z,13.40
2022-12-11T18:54:03.828Z,21.60
2022-12-11T18:56:31.425Z,19.50
2022-12-11T18:58:59.103Z,18.20
2022-12-11T19:01:28.992Z,14.50
2022-12-11T19:04:02.724Z,11.90
2022-12-11T19:06:33.170Z,12.10
2022-12-11T19:09:02.400Z,15.40
2022-12-11T19:11:31.318Z,10.00
2022-12-11T19:13:59.513Z,13.80
2022-12-11T19:16:29.889Z,17.10
2022-12-11T19:18:58.822Z,15.30
2022-12-11T19:21:27.288Z,10.90
2022-12-11T19:23:54.889Z,11.40
2022-12-11T19:26:24.052Z,11.60
2022-12-11T19:28:53.261Z,11.40
2022-12-11T19:31:22.799Z,8.00
2022-12-11T19:33:50.775Z,11.40
2022-12-11T19:36:21.386Z,11.70
2022-12-11T19:38:49.157Z,11.60
2022-12-11T19:41:24.004Z,14.60
2022-12-11T19:43:51.564Z,24.90
2022-12-11T19:46:20.204Z,10.90
2022-12-11T19:48:50.006Z,10.70
2022-12-11T19:51:25.624Z,25.70
2022-12-11T19:53:53.336Z,17.20
2022-12-11T19:56:21.354Z,20.00
2022-12-11T19:58:49.884Z,19.80
2022-12-11T20:01:22.336Z,16.10
2022-12-11T20:03:51.206Z,7.00
2022-12-11T20:06:19.721Z,10.30
2022-12-11T20:08:47.506Z,12.10
2022-12-11T20:11:18.725Z,7.80
2022-12-11T20:13:48.120Z,9.60
2022-12-11T20:16:20.014Z,9.00
2022-12-11T20:18:57.289Z,7.90
2022-12-11T20:21:24.990Z,15.20
2022-12-11T20:23:52.862Z,11.30
2022-12-11T20:26:23.730Z,11.70
2022-12-11T20:28:52.748Z,16.40
2022-12-11T20:31:25.604Z,9.50
2022-12-11T20:33:56.060Z,9.70
2022-12-11T20:36:25.112Z,11.10
2022-12-11T20:38:53.166Z,9.20
2022-12-11T20:41:24.108Z,6.90
2022-12-11T20:43:55.739Z,17.60
2022-12-11T20:46:25.982Z,13.80
2022-12-11T20:48:56.005Z,12.00
2022-12-11T20:51:26.373Z,13.90
2022-12-11T20:53:59.646Z,10.40
2022-12-11T20:56:30.183Z,10.50
2022-12-11T20:58:59.318Z,12.20
2022-12-11T21:01:30.315Z,8.70
2022-12-11T21:03:59.417Z,14.10
2022-12-11T21:06:31.313Z,10.80
2022-12-11T21:09:12.641Z,11.20
2022-12-11T21:11:40.472Z,12.50
2022-12-11T21:14:08.138Z,11.60
2022-12-11T21:16:37.150Z,13.30
2022-12-11T21:19:06.834Z,11.20
2022-12-11T21:21:42.184Z,8.40
2022-12-11T21:24:16.548Z,15.60
2022-12-11T21:26:45.411Z,11.90
2022-12-11T21:29:13.811Z,11.90
2022-12-11T21:31:42.644Z,13.00
2022-12-11T21:34:10.618Z,7.50
2022-12-11T21:36:38.198Z,10.50
2022-12-11T21:39:06.215Z,12.50
2022-12-11T21:41:34.154Z,7.70
2022-12-11T21:46:50.373Z,10.60
2022-12-11T21:49:17.917Z,11.30
2022-12-11T21:51:47.537Z,13.20
2022-12-11T21:54:18.423Z,9.40
2022-12-11T21:56:46.602Z,10.10
2022-12-11T21:59:14.553Z,6.80
2022-12-11T22:01:48.311Z,8.10
2022-12-11T22:04:16.718Z,11.60
2022-12-11T22:06:46.984Z,9.70
2022-12-11T22:09:16.388Z,13.70
2022-12-11T22:11:45.647Z,10.10
2022-12-11T22:14:17.931Z,13.40
2022-12-11T22:16:46.072Z,10.00
2022-12-11T22:19:13.778Z,9.60
2022-12-11T22:21:41.398Z,11.90
2022-12-11T22:24:09.366Z,8.60
2022-12-11T22:26:37.049Z,15.90
2022-12-11T22:29:04.615Z,14.40
2022-12-11T22:31:32.392Z,14.30
2022-12-11T22:34:00.023Z,12.10
2022-12-11T22:36:27.665Z,12.10
2022-12-11T22:38:55.669Z,13.30
2022-12-11T22:41:29.258Z,11.80
2022-12-11T22:43:58.441Z,11.20
2022-12-11T22:46:30.809Z,13.80
2022-12-11T22:48:59.109Z,23.30
2022-12-11T22:51:27.037Z,12.60
2022-12-11T22:53:54.920Z,16.20
2022-12-11T22:56:22.532Z,12.10
2022-12-11T22:58:50.303Z,9.10
2022-12-11T23:01:21.903Z,10.10
2022-12-11T23:03:49.533Z,12.10
2022-12-11T23:06:20.682Z,11.20
2022-12-11T23:08:48.907Z,15.60
2022-12-11T23:11:24.562Z,12.00
2022-12-11T23:13:53.546Z,10.50
2022-12-11T23:16:24.070Z,10.50
2022-12-11T23:18:52.203Z,15.90
2022-12-11T23:21:20.117Z,10.20
2022-12-11T23:23:48.141Z,12.20
2022-12-11T23:26:18.626Z,12.80
2022-12-11T23:28:47.080Z,9.90
2022-12-11T23:31:15.364Z,12.40
2022-12-11T23:33:43.164Z,15.40
2022-12-11T23:36:11.286Z,12.00
2022-12-11T23:38:40.282Z,15.40
2022-12-11T23:41:09.973Z,15.00
2022-12-11T23:43:37.976Z,18.40
2022-12-11T23:46:10.436Z,10.40
2022-12-11T23:48:38.182Z,13.80
2022-12-11T23:51:06.391Z,12.50
2022-12-11T23:53:34.316Z,11.50
2022-12-11T23:56:24.232Z,11.20
2022-12-11T23:58:52.867Z,15.50
